Terminal Aerodrome Forecast
Issued by NWS Albany, NY

Home | Current Version | Previous Version | Text Only | Print | Product List | Glossary On
Versions: 1 2 3 4 5 6 7 8 9 10 11 12 13 14 15 16 17 18
000
FTUS41 KALY 241030 AAB
TAFPOU
TAF AMD
KPOU 241030Z 2411/2506 23005KT P6SM SCT025 BKN100
     FM241500 28010G18KT P6SM SCT040 BKN250
     FM250000 28004KT P6SM FEW150=

USA.gov is the U.S. government's official web portal to all federal, state and local government web resources and services.